Time;durP1;ratioP1;P1;durP2;ratioP2;P2;SDS_P1;SDS_P2;PMS_P1;PMS_P2;Temp;Humidity;BMP_temperature;BMP_pressure;BME280_temperature;BME280_humidity;BME280_pressure;Samples;Min_cycle;Max_cycle;Signal;HPM_P1;HPM_P2
2022/04/23 00:01:56;;;;;;;16.95;11.00;;;13.00;67.60;;;;;;5114706;28;20032;-71
2022/04/23 00:04:22;;;;;;;17.35;10.90;;;13.00;67.60;;;;;;5114751;28;20040;-71
2022/04/23 00:06:48;;;;;;;16.88;10.95;;;13.00;67.90;;;;;;5096873;28;20088;-71
2022/04/23 00:09:13;;;;;;;16.67;11.07;;;12.90;67.80;;;;;;5114701;28;20020;-71
2022/04/23 00:11:39;;;;;;;17.23;11.48;;;12.80;68.20;;;;;;5114613;28;20494;-70
2022/04/23 00:14:05;;;;;;;19.27;12.02;;;12.80;69.30;;;;;;5114558;28;20032;-70
2022/04/23 00:16:30;;;;;;;15.82;10.95;;;12.80;68.60;;;;;;5096567;28;20051;-70
2022/04/23 00:18:59;;;;;;;15.02;11.18;;;12.80;68.60;;;;;;5096590;28;20032;-70
2022/04/23 00:21:25;;;;;;;18.15;12.45;;;12.80;69.60;;;;;;5114242;28;20032;-70
2022/04/23 00:23:50;;;;;;;17.92;12.02;;;12.70;68.90;;;;;;5114372;28;20020;-70
2022/04/23 00:26:16;;;;;;;18.42;12.48;;;12.70;68.80;;;;;;5114323;28;20028;-70
2022/04/23 00:28:42;;;;;;;19.35;12.88;;;12.70;68.70;;;;;;5114367;28;20076;-70
2022/04/23 00:31:08;;;;;;;18.33;12.05;;;12.70;68.90;;;;;;5096281;28;20517;-71
2022/04/23 00:33:37;;;;;;;19.17;12.85;;;12.70;68.90;;;;;;5114349;28;20039;-70
2022/04/23 00:36:09;;;;;;;18.63;12.27;;;12.70;69.00;;;;;;5114224;28;20024;-71
2022/04/23 00:38:37;;;;;;;18.25;12.98;;;12.70;69.20;;;;;;5114282;28;20032;-70
2022/04/23 00:41:03;;;;;;;23.90;13.48;;;12.60;69.40;;;;;;5113992;28;20087;-71
2022/04/23 00:43:30;;;;;;;21.67;13.43;;;12.50;69.50;;;;;;5114031;28;20027;-71
2022/04/23 00:45:57;;;;;;;21.00;12.82;;;12.60;69.40;;;;;;5113976;28;20016;-71
2022/04/23 00:48:26;;;;;;;22.38;12.73;;;12.50;69.60;;;;;;5113967;28;20020;-70
2022/04/23 00:50:53;;;;;;;22.27;13.30;;;12.50;69.80;;;;;;5113924;28;20028;-70
2022/04/23 00:53:19;;;;;;;21.65;13.75;;;12.50;69.70;;;;;;5113873;28;20047;-70
2022/04/23 00:55:46;;;;;;;20.08;14.10;;;12.50;69.80;;;;;;5113834;28;20062;-70
2022/04/23 00:58:15;;;;;;;19.60;13.48;;;12.50;69.80;;;;;;5113830;28;20053;-70
2022/04/23 01:00:41;;;;;;;20.63;13.18;;;12.50;69.70;;;;;;5113670;28;20055;-70
2022/04/23 01:03:07;;;;;;;20.08;13.10;;;12.50;69.80;;;;;;5113719;28;20020;-70
2022/04/23 01:05:34;;;;;;;21.98;14.13;;;12.50;69.80;;;;;;5113682;28;20026;-70
2022/04/23 01:08:02;;;;;;;21.65;13.85;;;12.50;69.90;;;;;;5113705;28;20053;-70
2022/04/23 01:10:28;;;;;;;20.85;13.70;;;12.50;70.20;;;;;;5095695;28;20128;-70
2022/04/23 01:12:54;;;;;;;21.05;14.00;;;12.40;70.30;;;;;;5113577;28;20028;-70
2022/04/23 01:15:21;;;;;;;21.88;14.57;;;12.40;70.50;;;;;;5113089;28;20043;-70
2022/04/23 01:17:49;;;;;;;19.83;13.95;;;12.40;70.50;;;;;;5113576;28;20027;-70
2022/04/23 01:20:16;;;;;;;23.40;15.50;;;12.30;70.60;;;;;;5113357;28;20047;-70
2022/04/23 01:22:44;;;;;;;22.38;14.23;;;12.40;70.80;;;;;;5113548;28;20467;-70
2022/04/23 01:25:15;;;;;;;19.55;13.63;;;12.30;71.10;;;;;;5113400;28;20016;-71
2022/04/23 01:27:42;;;;;;;21.75;14.80;;;12.30;72.10;;;;;;5113407;28;20055;-71
2022/04/23 01:30:12;;;;;;;22.70;14.98;;;12.20;71.40;;;;;;5113369;28;20028;-71
2022/04/23 01:32:37;;;;;;;24.67;15.15;;;12.20;71.50;;;;;;5113306;28;20542;-71
2022/04/23 01:35:04;;;;;;;25.55;15.38;;;12.20;71.60;;;;;;5113142;28;20039;-71
2022/04/23 01:37:30;;;;;;;23.70;14.80;;;12.10;72.00;;;;;;5113266;28;20028;-70
2022/04/23 01:39:56;;;;;;;22.92;15.10;;;12.10;71.90;;;;;;5113209;28;20056;-71
2022/04/23 01:42:22;;;;;;;27.35;15.10;;;12.10;72.00;;;;;;5113297;28;20062;-71
2022/04/23 01:44:49;;;;;;;24.02;15.05;;;12.10;72.00;;;;;;5113261;28;20028;-71
2022/04/23 01:47:15;;;;;;;22.73;14.75;;;12.10;72.10;;;;;;5113218;28;20043;-71
2022/04/23 01:49:42;;;;;;;23.88;15.80;;;12.10;72.10;;;;;;5113166;28;20024;-71
2022/04/23 01:52:08;;;;;;;26.05;16.13;;;12.10;72.30;;;;;;5113161;28;20024;-71
2022/04/23 01:54:34;;;;;;;25.73;15.75;;;12.10;72.60;;;;;;5113178;28;20051;-71
2022/04/23 01:57:01;;;;;;;27.23;15.68;;;12.00;72.60;;;;;;5113102;28;20028;-71
2022/04/23 01:59:26;;;;;;;26.40;15.85;;;12.00;72.50;;;;;;5113083;28;20055;-71
2022/04/23 02:01:53;;;;;;;27.77;17.27;;;12.00;72.70;;;;;;5113121;28;20025;-71
2022/04/23 02:04:19;;;;;;;27.65;16.95;;;11.90;72.70;;;;;;5113031;28;20103;-71
2022/04/23 02:06:45;;;;;;;25.45;15.85;;;11.90;72.70;;;;;;5113070;28;20027;-71
2022/04/23 02:09:11;;;;;;;27.92;16.30;;;11.90;73.00;;;;;;5113028;28;20016;-71
2022/04/23 02:11:36;;;;;;;26.98;17.02;;;11.90;73.10;;;;;;5095086;28;20467;-71
2022/04/23 02:14:03;;;;;;;26.20;15.73;;;11.90;73.10;;;;;;5113023;28;20039;-71
2022/04/23 02:16:29;;;;;;;24.73;16.60;;;11.90;73.20;;;;;;5112932;28;20024;-71
2022/04/23 02:18:58;;;;;;;25.30;15.77;;;11.90;73.10;;;;;;5112836;28;20028;-71
2022/04/23 02:21:25;;;;;;;26.75;17.27;;;11.80;73.20;;;;;;5112628;28;20065;-71
2022/04/23 02:23:51;;;;;;;24.08;16.25;;;11.90;74.10;;;;;;5095124;28;20033;-71
2022/04/23 02:26:17;;;;;;;27.40;17.10;;;11.90;73.90;;;;;;5114264;28;20119;-71
2022/04/23 02:28:42;;;;;;;26.75;16.38;;;11.90;73.10;;;;;;5116698;28;20024;-71
2022/04/23 02:31:08;;;;;;;28.70;17.45;;;11.90;73.10;;;;;;5116587;28;20043;-71
2022/04/23 02:33:34;;;;;;;29.20;17.80;;;11.90;73.00;;;;;;5116546;28;20031;-71
2022/04/23 02:36:00;;;;;;;26.45;16.83;;;11.90;73.00;;;;;;5116477;28;20024;-71
2022/04/23 02:38:25;;;;;;;31.23;17.90;;;11.90;72.90;;;;;;5116440;28;20073;-71
2022/04/23 02:40:51;;;;;;;29.85;17.55;;;11.90;73.40;;;;;;5116326;28;20036;-71
2022/04/23 02:43:17;;;;;;;30.25;17.75;;;11.80;73.20;;;;;;5116469;28;20028;-72
2022/04/23 02:45:42;;;;;;;30.05;17.13;;;11.80;73.50;;;;;;5116310;28;20028;-71
2022/04/23 02:48:10;;;;;;;34.83;18.23;;;11.80;73.70;;;;;;5116241;28;20028;-71
2022/04/23 02:50:37;;;;;;;26.90;17.02;;;11.80;73.90;;;;;;5116207;28;20016;-70
2022/04/23 02:53:05;;;;;;;32.22;19.48;;;11.80;74.00;;;;;;5116194;28;20028;-70
2022/04/23 02:55:32;;;;;;;29.90;18.27;;;11.80;74.20;;;;;;5116134;28;20436;-71
2022/04/23 02:58:03;;;;;;;31.02;18.25;;;11.80;74.30;;;;;;5116057;28;20028;-71
2022/04/23 03:00:28;;;;;;;31.25;18.00;;;11.90;74.30;;;;;;5098051;28;20039;-71
2022/04/23 03:02:54;;;;;;;27.27;17.80;;;11.90;74.40;;;;;;5115962;28;20020;-71
2022/04/23 03:05:21;;;;;;;30.55;18.67;;;11.90;74.30;;;;;;5116050;28;20050;-71
2022/04/23 03:07:48;;;;;;;31.75;18.45;;;12.00;74.20;;;;;;5097975;28;20017;-71
2022/04/23 03:10:15;;;;;;;31.52;18.05;;;11.90;74.40;;;;;;5115847;28;20038;-70
2022/04/23 03:12:41;;;;;;;32.92;18.30;;;11.90;74.40;;;;;;5115769;28;20035;-70
2022/04/23 03:15:19;;;;;;;32.75;18.85;;;11.80;74.30;;;;;;5115732;28;20020;-70
2022/04/23 03:17:45;;;;;;;32.58;19.20;;;11.80;74.80;;;;;;5115732;28;20024;-71
2022/04/23 03:20:12;;;;;;;34.22;19.08;;;11.70;75.10;;;;;;5115367;28;20081;-70
2022/04/23 03:22:39;;;;;;;33.42;17.92;;;11.70;75.20;;;;;;5115732;28;20020;-70
2022/04/23 03:25:06;;;;;;;33.15;19.45;;;11.70;75.20;;;;;;5115545;28;20024;-71
2022/04/23 03:27:32;;;;;;;34.08;18.50;;;11.70;75.20;;;;;;5115535;28;20012;-70
2022/04/23 03:29:59;;;;;;;31.70;18.38;;;11.70;75.20;;;;;;5115452;28;20027;-71
2022/04/23 03:32:25;;;;;;;36.05;19.35;;;11.60;75.50;;;;;;5115408;28;20056;-71
2022/04/23 03:34:51;;;;;;;31.38;18.58;;;11.60;75.40;;;;;;5115365;28;20032;-71
2022/04/23 03:37:17;;;;;;;31.40;18.55;;;11.50;75.80;;;;;;5097218;28;20035;-70
2022/04/23 03:39:44;;;;;;;34.85;19.77;;;11.60;75.80;;;;;;5115232;28;20028;-71
2022/04/23 03:42:10;;;;;;;30.90;18.08;;;11.60;75.60;;;;;;5115306;28;20024;-71
2022/04/23 03:44:36;;;;;;;30.88;18.65;;;11.50;75.70;;;;;;5115170;28;20080;-70
2022/04/23 03:47:02;;;;;;;32.28;18.65;;;11.60;75.80;;;;;;5115074;28;20050;-71
2022/04/23 03:49:29;;;;;;;35.40;19.88;;;11.60;75.80;;;;;;5115067;28;20024;-70
2022/04/23 03:51:55;;;;;;;34.10;18.27;;;11.60;75.80;;;;;;5115040;28;20147;-70
2022/04/23 03:54:21;;;;;;;30.27;17.92;;;11.60;75.90;;;;;;5115002;28;20050;-70
2022/04/23 03:56:47;;;;;;;31.40;18.50;;;11.60;75.90;;;;;;5114906;28;20028;-70
2022/04/23 03:59:13;;;;;;;33.78;19.63;;;11.60;75.90;;;;;;5114809;28;20032;-70
2022/04/23 04:01:38;;;;;;;32.15;18.50;;;11.60;76.00;;;;;;5114830;28;20027;-70
2022/04/23 04:04:05;;;;;;;31.30;18.55;;;11.60;75.80;;;;;;5114815;28;20035;-70
2022/04/23 04:06:30;;;;;;;33.22;18.73;;;11.60;75.70;;;;;;5114752;28;20099;-70
2022/04/23 04:08:56;;;;;;;31.85;18.80;;;11.60;75.60;;;;;;5114689;28;20042;-71
2022/04/23 04:11:22;;;;;;;32.50;18.67;;;11.60;75.60;;;;;;5096640;28;20035;-71
2022/04/23 04:13:48;;;;;;;33.72;19.17;;;11.60;75.70;;;;;;5114577;28;20028;-70
2022/04/23 04:16:14;;;;;;;30.80;18.08;;;11.50;75.80;;;;;;5114536;28;20020;-70
2022/04/23 04:18:40;;;;;;;33.58;19.00;;;11.60;75.90;;;;;;5096572;28;20467;-70
2022/04/23 04:21:07;;;;;;;31.15;17.92;;;11.50;75.70;;;;;;5114199;28;20525;-71
2022/04/23 04:23:33;;;;;;;30.65;18.45;;;11.50;75.80;;;;;;5114516;28;20027;-71
2022/04/23 04:25:58;;;;;;;28.60;17.48;;;11.50;75.90;;;;;;5114396;28;20020;-71
2022/04/23 04:28:24;;;;;;;30.38;17.70;;;11.50;76.00;;;;;;5096464;28;20020;-71
2022/04/23 04:33:36;;;;;;;32.67;18.25;;;11.50;76.00;;;;;;5114483;28;20047;-71
2022/04/23 04:36:02;;;;;;;31.75;18.15;;;11.50;76.30;;;;;;5114333;28;20047;-71
2022/04/23 04:38:27;;;;;;;30.02;18.80;;;11.50;76.10;;;;;;5114160;28;20028;-71
2022/04/23 04:40:53;;;;;;;31.17;18.95;;;11.50;76.30;;;;;;5113992;28;20039;-71
2022/04/23 04:43:19;;;;;;;30.08;19.00;;;11.40;76.40;;;;;;5114097;28;20020;-71
2022/04/23 04:45:44;;;;;;;32.72;18.50;;;11.40;76.40;;;;;;5113996;28;20032;-71
2022/04/23 04:48:10;;;;;;;31.55;19.02;;;11.40;76.50;;;;;;5113572;28;20031;-71
2022/04/23 04:50:35;;;;;;;34.67;19.52;;;11.40;76.70;;;;;;5113588;28;20061;-71
2022/04/23 04:53:01;;;;;;;33.05;19.63;;;11.40;76.70;;;;;;5113905;28;20083;-71
2022/04/23 04:55:27;;;;;;;30.63;18.75;;;11.40;76.80;;;;;;5113846;28;20039;-71
2022/04/23 04:57:52;;;;;;;31.58;18.13;;;11.40;76.80;;;;;;5113838;28;20029;-71
2022/04/23 05:00:18;;;;;;;31.38;18.58;;;11.40;76.80;;;;;;5113705;28;20376;-71
2022/04/23 05:02:44;;;;;;;30.00;19.25;;;11.40;76.90;;;;;;5113749;28;20035;-71
2022/04/23 05:05:10;;;;;;;30.13;18.30;;;11.40;77.00;;;;;;5113690;28;20080;-71
2022/04/23 05:07:36;;;;;;;30.48;18.52;;;11.40;77.10;;;;;;5113667;28;20020;-70
2022/04/23 05:10:02;;;;;;;29.80;18.98;;;11.50;77.20;;;;;;5113636;28;20067;-72
2022/04/23 05:12:28;;;;;;;32.58;19.13;;;11.50;77.40;;;;;;5113609;28;20020;-72
2022/04/23 05:14:53;;;;;;;32.22;18.55;;;11.50;77.30;;;;;;5113582;28;20031;-72
2022/04/23 05:17:19;;;;;;;30.52;18.90;;;11.50;77.30;;;;;;5113526;28;20491;-70
2022/04/23 05:19:45;;;;;;;28.92;18.02;;;11.50;77.10;;;;;;5113448;28;20036;-71
2022/04/23 05:22:10;;;;;;;28.52;18.38;;;11.50;77.00;;;;;;5113340;28;20043;-71
2022/04/23 05:24:36;;;;;;;30.25;18.17;;;11.60;77.10;;;;;;5113426;28;20050;-70
2022/04/23 05:27:01;;;;;;;31.63;18.02;;;11.50;77.20;;;;;;5113429;28;20024;-70
2022/04/23 05:29:27;;;;;;;30.08;18.55;;;11.60;77.10;;;;;;5113442;28;20047;-71
2022/04/23 05:31:53;;;;;;;34.53;18.67;;;11.60;77.30;;;;;;5095454;28;20032;-70
2022/04/23 05:34:18;;;;;;;32.05;18.88;;;11.60;77.20;;;;;;5113364;28;20036;-71
2022/04/23 05:36:44;;;;;;;30.75;18.75;;;11.60;77.20;;;;;;5113343;28;20102;-71
2022/04/23 05:39:10;;;;;;;31.88;19.33;;;11.70;77.40;;;;;;5113195;28;20025;-71
2022/04/23 05:41:36;;;;;;;32.17;19.58;;;11.70;77.20;;;;;;5113268;28;20035;-71
2022/04/23 05:44:02;;;;;;;32.33;18.77;;;11.70;77.30;;;;;;5113235;28;20055;-71
2022/04/23 05:46:28;;;;;;;31.13;18.48;;;11.80;77.20;;;;;;5113203;28;20025;-71
2022/04/23 05:48:55;;;;;;;32.90;19.13;;;11.80;77.30;;;;;;5095511;28;20016;-71
2022/04/23 05:51:20;;;;;;;34.50;19.42;;;11.80;77.10;;;;;;5113158;28;20029;-71
2022/04/23 05:53:46;;;;;;;32.45;19.42;;;11.80;77.10;;;;;;5113117;28;20035;-72
2022/04/23 05:56:12;;;;;;;32.40;19.08;;;11.80;77.30;;;;;;5113283;28;20036;-71
2022/04/23 05:58:37;;;;;;;29.90;18.88;;;11.80;77.30;;;;;;5113143;28;20069;-71
2022/04/23 06:01:04;;;;;;;31.90;18.23;;;11.90;77.30;;;;;;5115780;28;20032;-72
2022/04/23 06:03:30;;;;;;;31.58;19.75;;;11.90;77.30;;;;;;5117120;28;20020;-71
2022/04/23 06:05:57;;;;;;;35.75;19.38;;;11.90;77.20;;;;;;5117189;28;20028;-72
2022/04/23 06:08:22;;;;;;;31.20;18.95;;;12.00;76.90;;;;;;5117088;28;20020;-72
2022/04/23 06:10:48;;;;;;;31.92;18.70;;;12.00;76.70;;;;;;5116996;28;20054;-72
2022/04/23 06:13:14;;;;;;;32.42;19.52;;;12.10;76.80;;;;;;5116981;28;20032;-72
2022/04/23 06:15:39;;;;;;;30.63;18.55;;;12.10;76.80;;;;;;5116895;28;20054;-72
2022/04/23 06:18:05;;;;;;;34.58;19.73;;;12.20;76.70;;;;;;5116881;28;20118;-71
2022/04/23 06:20:31;;;;;;;34.83;20.38;;;12.20;76.80;;;;;;5116441;28;20036;-73
2022/04/23 06:22:56;;;;;;;30.45;18.08;;;12.20;76.80;;;;;;5116790;28;20058;-73
2022/04/23 06:25:22;;;;;;;33.25;19.13;;;12.30;76.70;;;;;;5116677;28;20024;-72
2022/04/23 06:27:48;;;;;;;33.42;19.58;;;12.30;76.60;;;;;;5116577;28;20041;-72
2022/04/23 06:30:15;;;;;;;30.75;19.48;;;12.40;76.80;;;;;;5116534;28;20031;-72
2022/04/23 06:32:41;;;;;;;31.65;19.38;;;12.40;76.60;;;;;;5116591;28;20028;-72
2022/04/23 06:35:07;;;;;;;34.95;20.33;;;12.50;76.50;;;;;;5116521;28;20088;-71
2022/04/23 06:37:42;;;;;;;33.38;19.52;;;12.50;76.50;;;;;;5116498;28;20072;-73
2022/04/23 06:40:13;;;;;;;32.55;18.88;;;12.60;76.40;;;;;;5116530;28;20032;-70
2022/04/23 06:42:42;;;;;;;32.92;18.98;;;12.60;75.90;;;;;;5116430;28;20046;-71
2022/04/23 06:45:08;;;;;;;32.22;19.00;;;12.70;76.00;;;;;;5116356;28;20024;-68
2022/04/23 06:47:34;;;;;;;31.45;18.73;;;12.70;75.80;;;;;;5116364;28;20016;-71
2022/04/23 06:49:59;;;;;;;30.67;19.75;;;12.80;75.10;;;;;;5116251;28;20039;-69
2022/04/23 06:52:26;;;;;;;30.23;18.67;;;12.90;75.20;;;;;;5098557;28;20055;-70
2022/04/23 06:54:54;;;;;;;32.63;19.35;;;12.90;74.90;;;;;;5116164;28;20035;-70
2022/04/23 06:57:26;;;;;;;34.80;20.20;;;13.00;74.90;;;;;;5116096;28;20024;-70
2022/04/23 06:59:52;;;;;;;34.25;19.30;;;13.10;75.20;;;;;;5116221;28;20024;-71
2022/04/23 07:02:19;;;;;;;31.77;19.05;;;13.20;74.60;;;;;;5116012;28;20024;-71
2022/04/23 07:04:44;;;;;;;30.83;19.50;;;13.20;73.60;;;;;;5115939;28;20024;-72
2022/04/23 07:07:10;;;;;;;29.63;18.45;;;13.30;74.00;;;;;;5115918;28;20049;-71
2022/04/23 07:09:37;;;;;;;30.98;19.45;;;13.30;73.40;;;;;;5115815;28;20088;-71
2022/04/23 07:12:04;;;;;;;31.48;19.90;;;13.30;72.80;;;;;;5115002;28;20039;-71
2022/04/23 07:14:29;;;;;;;31.13;19.27;;;13.40;72.50;;;;;;5115735;28;20088;-71
2022/04/23 07:16:55;;;;;;;34.88;19.05;;;13.40;72.50;;;;;;5097844;28;20540;-71
2022/04/23 07:19:20;;;;;;;31.20;18.98;;;13.50;72.90;;;;;;5115734;28;20058;-71
2022/04/23 07:21:46;;;;;;;31.33;19.20;;;13.60;72.20;;;;;;5080849;28;20048;-70
2022/04/23 07:24:13;;;;;;;30.42;18.58;;;13.60;72.20;;;;;;5115720;28;20028;-71
2022/04/23 07:26:40;;;;;;;32.20;18.52;;;13.70;72.10;;;;;;5115657;28;20070;-71
2022/04/23 07:29:08;;;;;;;28.23;18.38;;;13.80;72.40;;;;;;5115365;28;20024;-71
2022/04/23 07:31:36;;;;;;;31.17;18.05;;;13.80;71.20;;;;;;5115433;28;20027;-71
2022/04/23 07:39:31;;;;;;;34.83;19.05;;;14.10;70.90;;;;;;5115475;28;20039;-71
2022/04/23 07:41:58;;;;;;;30.08;18.23;;;14.20;71.50;;;;;;5097339;28;20016;-71
2022/04/23 07:44:24;;;;;;;31.25;18.83;;;14.30;70.90;;;;;;5115168;28;20024;-70
2022/04/23 07:46:50;;;;;;;31.50;19.20;;;14.40;70.20;;;;;;5115138;28;20036;-70
2022/04/23 07:49:16;;;;;;;32.83;20.15;;;14.50;69.60;;;;;;5115081;28;20030;-70
2022/04/23 07:51:42;;;;;;;31.52;19.83;;;14.60;69.30;;;;;;5115060;28;20070;-70
2022/04/23 07:54:08;;;;;;;29.00;18.88;;;14.60;68.80;;;;;;5114977;28;20035;-71
2022/04/23 07:56:35;;;;;;;28.70;18.75;;;14.60;68.10;;;;;;5114953;28;20056;-71
2022/04/23 07:59:00;;;;;;;32.30;19.77;;;14.70;68.10;;;;;;5114869;28;20030;-71
2022/04/23 08:01:26;;;;;;;30.80;19.08;;;14.80;68.00;;;;;;5114877;28;20032;-71
2022/04/23 08:03:52;;;;;;;28.13;17.65;;;14.80;67.20;;;;;;5114928;28;20092;-71
2022/04/23 08:06:17;;;;;;;30.02;18.75;;;14.90;66.20;;;;;;5114751;28;20024;-70
2022/04/23 08:08:43;;;;;;;30.92;19.33;;;14.90;66.70;;;;;;5114826;28;20088;-70
2022/04/23 08:11:09;;;;;;;29.58;18.00;;;15.00;66.50;;;;;;5114729;28;20029;-70
2022/04/23 08:13:34;;;;;;;23.48;16.58;;;15.00;66.10;;;;;;5114772;28;20398;-70
2022/04/23 08:16:00;;;;;;;30.20;18.25;;;15.20;64.10;;;;;;5114602;28;20367;-70
2022/04/23 08:18:27;;;;;;;27.50;18.52;;;15.20;65.10;;;;;;5114529;28;20036;-70
2022/04/23 08:20:53;;;;;;;29.90;18.38;;;15.30;65.50;;;;;;5114225;28;20059;-71
2022/04/23 08:23:19;;;;;;;27.15;17.70;;;15.40;64.60;;;;;;5113405;28;20054;-71
2022/04/23 08:25:46;;;;;;;32.28;19.63;;;15.50;64.80;;;;;;5114263;28;20087;-70
2022/04/23 08:30:57;;;;;;;28.77;17.50;;;15.70;65.40;;;;;;5114414;28;20399;-71
2022/04/23 08:33:23;;;;;;;29.92;20.13;;;15.80;64.70;;;;;;5114281;28;20024;-71
2022/04/23 08:35:50;;;;;;;29.77;18.30;;;15.80;63.70;;;;;;5114199;28;20040;-70
2022/04/23 08:38:16;;;;;;;29.42;17.98;;;15.90;62.70;;;;;;5114172;28;20107;-71
2022/04/23 08:40:44;;;;;;;29.38;19.60;;;15.90;62.30;;;;;;5114061;28;20057;-70
2022/04/23 08:43:10;;;;;;;27.77;18.30;;;15.90;61.90;;;;;;5114100;28;20016;-70
2022/04/23 08:45:37;;;;;;;28.58;17.85;;;15.90;62.70;;;;;;5114041;28;20024;-70
2022/04/23 08:48:12;;;;;;;30.60;19.10;;;16.00;62.50;;;;;;5096181;28;20021;-70
2022/04/23 08:50:39;;;;;;;28.15;19.00;;;16.10;62.30;;;;;;5113959;28;20039;-71
2022/04/23 08:53:16;;;;;;;28.83;18.90;;;16.10;62.50;;;;;;5113938;28;20020;-70
2022/04/23 08:55:45;;;;;;;30.50;19.30;;;16.20;61.90;;;;;;5114008;28;20039;-70
2022/04/23 08:58:12;;;;;;;38.25;20.88;;;16.20;61.30;;;;;;5113822;28;20028;-70
2022/04/23 09:00:38;;;;;;;28.65;18.25;;;16.20;63.00;;;;;;5095744;28;20024;-72
2022/04/23 09:03:03;;;;;;;33.45;18.75;;;16.20;60.90;;;;;;5113716;28;20027;-72
2022/04/23 09:05:31;;;;;;;30.20;19.73;;;16.30;60.40;;;;;;5113702;28;20408;-71
2022/04/23 09:07:57;;;;;;;30.92;19.35;;;16.20;60.70;;;;;;5113716;28;20016;-71
2022/04/23 09:10:54;;;;;;;29.55;18.90;;;16.20;60.80;;;;;;5113669;28;20031;-71
2022/04/23 09:13:28;;;;;;;30.48;20.08;;;16.20;61.30;;;;;;5096097;28;20070;-71
2022/04/23 09:24:19;;;;;;;29.35;19.25;;;16.60;59.40;;;;;;5113736;28;20096;-72
2022/04/23 09:27:05;;;;;;;29.98;19.52;;;16.60;59.40;;;;;;5113439;28;20020;-70
2022/04/23 09:29:30;;;;;;;29.10;18.75;;;16.60;60.30;;;;;;5113368;28;20012;-70
2022/04/23 09:32:17;;;;;;;34.05;19.98;;;16.60;61.00;;;;;;5113387;28;20043;-70
2022/04/23 09:34:44;;;;;;;30.65;19.15;;;16.80;60.10;;;;;;5113113;28;20027;-70
2022/04/23 09:37:09;;;;;;;32.40;19.65;;;16.90;60.00;;;;;;5113386;28;20028;-71
2022/04/23 09:39:38;;;;;;;31.50;20.38;;;17.00;60.20;;;;;;5113395;28;20051;-71
2022/04/23 09:42:17;;;;;;;30.67;19.95;;;17.10;59.00;;;;;;5113296;28;20020;-71
2022/04/23 09:44:44;;;;;;;29.02;19.77;;;17.10;58.60;;;;;;5095291;28;20024;-71
2022/04/23 09:47:10;;;;;;;34.33;19.83;;;17.10;59.00;;;;;;5113282;28;20020;-71
2022/04/23 09:49:38;;;;;;;32.00;20.10;;;17.20;59.70;;;;;;5113342;28;20024;-71
2022/04/23 09:52:11;;;;;;;28.08;18.65;;;17.40;59.80;;;;;;5113312;28;20027;-71
2022/04/23 09:54:38;;;;;;;28.63;18.92;;;17.50;57.30;;;;;;5113128;28;20023;-70
2022/04/23 09:57:04;;;;;;;33.80;18.63;;;17.60;59.20;;;;;;5113174;28;20498;-71
2022/04/23 09:59:31;;;;;;;32.15;20.02;;;17.70;57.40;;;;;;5113018;28;20040;-71
2022/04/23 10:01:58;;;;;;;30.88;20.13;;;17.70;57.20;;;;;;5113096;28;20028;-70
2022/04/23 10:04:27;;;;;;;32.00;19.55;;;17.70;55.80;;;;;;5113124;28;20019;-70
2022/04/23 10:06:57;;;;;;;28.85;19.67;;;17.60;56.60;;;;;;5113014;28;20012;-70
2022/04/23 10:09:37;;;;;;;31.10;20.45;;;17.80;56.60;;;;;;5113151;28;20020;-71
2022/04/23 10:12:07;;;;;;;28.20;18.73;;;17.80;55.50;;;;;;5113187;28;20028;-71
2022/04/23 10:14:40;;;;;;;28.90;19.42;;;17.80;55.50;;;;;;5112983;28;20024;-71
2022/04/23 10:17:05;;;;;;;;;;;17.90;55.20;;;;;;5113442;28;20020;-71
2022/04/23 10:19:32;;;;;;;32.33;20.27;;;17.80;55.20;;;;;;5112891;28;19934;-71
2022/04/23 10:22:19;;;;;;;30.85;19.33;;;17.90;56.50;;;;;;5112701;28;20066;-71
2022/04/23 10:25:09;;;;;;;31.65;20.55;;;17.90;53.80;;;;;;5112947;28;20021;-71
2022/04/23 10:27:35;;;;;;;35.35;21.45;;;17.70;55.20;;;;;;5112911;28;20044;-71
2022/04/23 10:30:04;;;;;;;31.90;20.83;;;17.80;55.90;;;;;;5112821;28;20020;-71
2022/04/23 10:32:40;;;;;;;34.75;20.98;;;17.70;56.10;;;;;;5112756;28;20024;-71
2022/04/23 10:35:29;;;;;;;33.60;20.50;;;17.80;55.90;;;;;;5112860;28;20038;-70
2022/04/23 10:37:56;;;;;;;32.63;19.90;;;17.80;55.30;;;;;;5103248;28;20431;-70
2022/04/23 10:40:22;;;;;;;30.25;18.98;;;17.80;55.00;;;;;;5112694;28;20051;-70
2022/04/23 10:43:06;;;;;;;30.38;19.63;;;17.80;54.40;;;;;;5112717;28;20024;-70
2022/04/23 10:45:36;;;;;;;28.90;19.10;;;17.80;54.90;;;;;;5112680;28;20035;-70
2022/04/23 10:48:29;;;;;;;33.25;20.23;;;17.90;55.30;;;;;;5115160;28;20088;-70
2022/04/23 10:51:08;;;;;;;30.73;19.77;;;18.00;54.60;;;;;;5114032;28;20042;-70
2022/04/23 10:53:37;;;;;;;27.95;18.67;;;18.00;56.20;;;;;;5116342;28;20021;-70
2022/04/23 10:56:21;;;;;;;29.83;19.63;;;18.10;52.40;;;;;;5116108;28;20024;-71
2022/04/23 10:58:47;;;;;;;29.05;18.23;;;18.20;52.20;;;;;;5116244;28;20031;-70
2022/04/23 11:01:24;;;;;;;28.75;18.88;;;18.30;53.70;;;;;;5098227;28;20028;-71
2022/04/23 11:04:06;;;;;;;30.35;18.88;;;18.30;52.10;;;;;;5116031;28;20058;-70
2022/04/23 11:12:22;;;;;;;33.75;19.95;;;18.50;53.90;;;;;;5115976;28;20028;-71
2022/04/23 11:14:51;;;;;;;31.95;20.73;;;18.60;52.00;;;;;;5115827;28;20084;-71
2022/04/23 11:17:37;;;;;;;31.80;19.70;;;18.70;53.00;;;;;;5115853;28;20022;-70
2022/04/23 11:20:04;;;;;;;33.17;21.70;;;18.70;52.30;;;;;;5115803;28;20026;-71
2022/04/23 11:22:30;;;;;;;30.45;20.20;;;18.60;52.20;;;;;;5115809;28;20052;-71
2022/04/23 11:24:57;;;;;;;30.90;20.80;;;18.60;51.90;;;;;;5097647;28;20515;-71
2022/04/23 11:27:36;;;;;;;34.65;20.85;;;18.60;51.60;;;;;;5115605;28;20016;-72
2022/04/23 11:30:03;;;;;;;34.47;19.67;;;18.60;52.50;;;;;;5115681;28;20025;-71
2022/04/23 11:32:31;;;;;;;29.70;20.88;;;18.70;50.90;;;;;;5115434;28;20020;-71
2022/04/23 11:35:07;;;;;;;28.98;19.27;;;18.70;52.00;;;;;;5115428;28;20035;-71
2022/04/23 11:37:37;;;;;;;31.55;21.50;;;18.90;50.20;;;;;;5115360;28;20024;-71
2022/04/23 11:40:11;;;;;;;34.50;21.30;;;18.80;50.60;;;;;;5115210;28;20039;-71
2022/04/23 11:42:47;;;;;;;29.65;18.27;;;19.00;49.20;;;;;;5115422;28;20111;-71
2022/04/23 11:45:17;;;;;;;32.30;20.23;;;18.80;49.00;;;;;;5115276;28;20367;-71
2022/04/23 11:47:42;;;;;;;32.13;19.98;;;18.80;49.30;;;;;;5115154;28;20016;-71
2022/04/23 11:50:08;;;;;;;31.55;19.52;;;19.00;50.40;;;;;;5115046;28;20032;-72
2022/04/23 11:52:34;;;;;;;29.02;19.23;;;19.10;50.10;;;;;;5115066;28;20107;-71
2022/04/23 11:55:01;;;;;;;30.85;18.98;;;19.30;51.00;;;;;;5114976;28;20039;-71
2022/04/23 11:57:27;;;;;;;30.05;19.95;;;19.50;50.50;;;;;;5114712;28;20087;-71
2022/04/23 12:00:02;;;;;;;32.33;20.33;;;19.50;49.10;;;;;;5114836;28;20043;-71
2022/04/23 12:02:32;;;;;;;30.10;18.42;;;19.60;49.70;;;;;;5114977;28;20034;-71
2022/04/23 12:05:00;;;;;;;26.90;18.77;;;19.60;48.90;;;;;;5114836;28;20020;-71
2022/04/23 12:07:27;;;;;;;29.00;19.48;;;19.70;48.10;;;;;;5114764;28;20439;-70
2022/04/23 12:09:55;;;;;;;30.42;18.83;;;19.80;50.20;;;;;;5114708;28;20485;-70
2022/04/23 12:12:31;;;;;;;28.17;18.58;;;20.00;50.50;;;;;;5114673;28;20028;-70
2022/04/23 12:15:02;;;;;;;28.95;17.63;;;20.10;48.20;;;;;;5114669;28;20032;-70
2022/04/23 12:17:29;;;;;;;30.73;19.05;;;20.10;47.80;;;;;;5114625;28;20024;-70
2022/04/23 12:19:56;;;;;;;30.40;18.38;;;20.10;48.50;;;;;;5114516;28;20117;-70
2022/04/23 12:22:23;;;;;;;30.38;19.60;;;20.20;46.50;;;;;;5114342;28;20047;-70
2022/04/23 12:24:49;;;;;;;34.83;19.85;;;20.20;46.20;;;;;;5114435;28;20046;-70
2022/04/23 12:27:15;;;;;;;28.65;18.98;;;20.20;47.10;;;;;;5114333;28;20029;-70
2022/04/23 12:41:13;;;;;;;35.45;18.85;;;20.30;46.80;;;;;;5114178;28;20059;-71
2022/04/23 12:43:39;;;;;;;36.40;18.58;;;20.40;46.30;;;;;;5114125;28;20459;-70
2022/04/23 12:46:07;;;;;;;25.65;17.52;;;20.40;46.60;;;;;;5114058;28;20039;-71
2022/04/23 12:48:34;;;;;;;31.63;19.75;;;20.40;46.90;;;;;;5114000;28;20046;-71
2022/04/23 12:51:06;;;;;;;26.20;18.20;;;20.50;46.60;;;;;;5113998;28;20115;-71
2022/04/23 12:53:36;;;;;;;26.00;17.65;;;20.60;46.80;;;;;;5113988;28;20020;-69
2022/04/23 12:56:05;;;;;;;25.65;17.92;;;20.60;46.50;;;;;;5095921;28;20039;-70
2022/04/23 12:58:31;;;;;;;33.55;18.30;;;20.70;45.30;;;;;;5113809;28;20028;-70
2022/04/23 13:00:58;;;;;;;28.13;18.77;;;20.70;46.80;;;;;;5113718;28;20027;-70
2022/04/23 13:03:34;;;;;;;31.23;18.27;;;20.70;44.80;;;;;;5113745;28;20080;-71
2022/04/23 13:06:00;;;;;;;28.50;18.17;;;20.80;46.80;;;;;;5113782;28;20020;-71
2022/04/23 13:11:29;;;;;;;28.35;18.50;;;20.80;45.20;;;;;;5113147;28;20039;-71